Kenneth Simons

Chefscout - Heerenveen
10 Sep 2028
Sonntag
Verarbeitung

Persönlichkeit

Anpassungsfähigkeit (3) Ehrgeiz (5) Kontroverse (16) Loyalität (9) Druck (5) Professionalität (9) Fairness (7) Temperament (11)

Profil

Trainerstil Demokratisch
Lizenz Kontinentale Pro
Entschlossenheit 4
Menschenführung 9
Motivation 12
Disziplin 9
Arbeitszufriedenheit
66%
Ermüdung
0%
Rolle Chefscout
Gehalt 37.8K p/W
Vertrag 14.03.2030

Leistung

Verhalten Gut
Trainingseffektivität
39%
Spielerentwicklung
30%
Verletzungsprävention
25%
Taktische Umsetzung
60%

Letzte Ereignisse

Nahm an einer Scouting-Besprechung teil jetzt
Nahm an einer Scouting-Besprechung teil jetzt
Empfahl ein Transferziel jetzt
Empfahl ein Transferziel jetzt
Empfahl ein Transferziel jetzt
Empfahl ein Transferziel 7T her
Empfahl ein Transferziel 7T her
Empfahl ein Transferziel 7T her

Aktuell beobachtet

110
Spieler Verein Status Fähigkeit Vertrauen Beobachtet Zuletzt beobachtet Letzte Stimme
Deveron Fonville NEC Aktiv 125 / 120 62% 1 07.08.2028 Befürworten
Illaijh de Ruijter ADO Den Haag Aktiv 110 / 124 62% 1 03.07.2028 Befürworten
Thijs Kraaijeveld USM Alger Aktiv 133 / 124 40% 1 31.05.2028 -
Konta Ismaily Aktiv 88 / 105 40% 1 31.05.2028 -
Gilberto Mora Guadalajara Aktiv 123 / 141 40% 3 02.05.2028 -
Ryan McAidoo Oldham Athletic Aktiv 118 / 134 40% 2 30.04.2028 -
Ryunosuke Sato Eibar Aktiv 140 / 138 40% 1 30.04.2028 -
Kerim Alajbegović Modena Aktiv 131 / 141 40% 2 29.04.2028 -
Eli Junior Kroupi Bournemouth Aktiv 155 / 146 40% 3 27.04.2028 -
Trey Nyoni Rotherham United Aktiv 129 / 146 40% 2 27.04.2028 -
Luca Williams-Barnett Walsall Aktiv 127 / 124 40% 2 25.04.2028 -
Luca Meirelles Kudrivka Aktiv 127 / 137 40% 1 25.04.2028 -
Babis Kostoulas Oxford United Aktiv 140 / 152 40% 2 24.04.2028 -
Mateus Mané Burnley Aktiv 136 / 152 40% 3 24.04.2028 -
Honest Ahanor Atalanta Aktiv 128 / 143 40% 3 23.04.2028 -
Aarón Ochoa Málaga Aktiv 127 / 126 40% 2 23.04.2028 -
Ryan Kavuma-McQueen Accrington Stanley Aktiv 122 / 134 40% 4 22.04.2028 -
Shea Lacey Crystal Palace Aktiv 129 / 139 40% 1 18.04.2028 -
Pape Diong Westerlo Aktiv 119 / 123 40% 2 11.04.2028 -
Sindre Walle Egeli Udinese Aktiv 142 / 148 40% 2 06.04.2028 -
Ibrahim Fullah Charlton Athletic Aktiv 131 / 124 40% 1 06.04.2028 -
Ben Broggio Mansfield Town Aktiv 104 / 114 40% 2 04.04.2028 -
Wiebe Kooistra Cambuur Aktiv 106 / 107 40% 1 04.04.2028 -
Siyabonga Mabena Bidvest Wits Aktiv 107 / 120 40% 2 01.04.2028 -
Christos Mouzakitis Hull City Aktiv 140 / 138 40% 1 01.04.2028 -
Josh Nichols Oldham Athletic Aktiv 124 / 128 40% 3 31.03.2028 -
Gabriel Mec Feirense Aktiv 120 / 128 40% 1 28.03.2028 -
André Miranda Porto Aktiv 112 / 118 40% 1 26.03.2028 -
Oskar Pietuszewski Estrela da Amadora Aktiv 121 / 129 40% 1 23.03.2028 -
Oscar Schwartau Norwich City Aktiv 129 / 132 40% 1 21.03.2028 -
Dânio Djassi Portimonense Aktiv 120 / 123 40% 1 21.03.2028 -
Henrique Carmo Sochi Aktiv 124 / 138 40% 3 15.03.2028 -
Hugo Camberos Dorados Aktiv 134 / 127 40% 2 08.03.2028 -
Amine Boukamir Charleroi Aktiv 98 / 107 40% 1 08.03.2028 -
Jorge Salinas Racing Santander Aktiv 124 / 133 40% 1 06.03.2028 -
Mao Hosoya Santos Aktiv 134 / 135 67% 1 01.01.2028 Befürworten
Facundo Torres Millonarios Aktiv 134 / 134 67% 1 01.01.2028 Befürworten
Felipe Faúndez O'Higgins Aktiv 87 / 113 40% 1 31.12.2027 -
Daniel Idoko Ikorodu City Aktiv 94 / 87 40% 1 31.12.2027 -
Calvin Carrilho AZ Aktiv 95 / 113 58% 1 23.08.2027 -
Pedro de la Vega Columbus Crew Aktiv 133 / 134 66% 1 01.06.2027 Befürworten
Georginio Rutter Brighton Aktiv 144 / 150 40% 4 18.01.2027 -
Roberto Fernández Braga Aktiv 133 / 144 40% 7 30.12.2026 Beobachten
Elijah Adebayo Luton Town Aktiv 120 / 120 40% 1 30.12.2026 -
Ismaïla Sarr Crystal Palace Aktiv 142 / 152 40% 3 27.12.2026 -
Fran Navarro Braga Aktiv 122 / 123 40% 1 26.12.2026 -
Mexx Meerdink AZ Aktiv 139 / 137 40% 4 24.12.2026 -
Ismael Díaz Leon Aktiv 112 / 119 40% 2 21.12.2026 -
Sorriso Famalicao Aktiv 136 / 130 40% 1 20.12.2026 -
Alexis Vega Feyenoord Aktiv 136 / 147 40% 2 19.12.2026 -
Youri Tielemans Mouscron Aktiv 108 / 114 40% 2 17.12.2026 -
Bongani Khune SuperSport United Aktiv 128 / 124 40% 4 17.12.2026 -
Nicolò Tresoldi Club Brugge Aktiv 138 / 134 40% 4 15.12.2026 -
Justo Giani Umraniyespor Aktiv 125 / 119 40% 1 14.12.2026 -
Chukwubuikem Ikwuemesi OH Leuven Aktiv 120 / 113 40% 2 13.12.2026 -
Rafael Navarro Famalicao Aktiv 131 / 125 40% 1 13.12.2026 -
Rafiu Durosinmi Racing Genk Aktiv 120 / 135 40% 3 12.12.2026 -
Malick Mbaye Zulte Waregem Aktiv 123 / 116 40% 1 11.12.2026 -
Luis Suárez Sporting CP Aktiv 154 / 157 40% 1 07.12.2026 -
Giacomo Raspadori Atalanta Aktiv 149 / 147 40% 1 06.12.2026 -
Thibaud Verlinden OH Leuven Aktiv 118 / 117 40% 1 05.12.2026 -
Ilay Camara Anderlecht Aktiv 122 / 129 40% 1 05.12.2026 -
Kevin Fulham Aktiv 149 / 145 40% 1 01.12.2026 -
Thierry Ambrose KV Kortrijk Aktiv 118 / 121 40% 3 26.11.2026 -
Hugo Cuypers Monterrey Aktiv 128 / 132 40% 3 25.11.2026 -
Aimé Omgba KAA Gent Aktiv 115 / 123 40% 1 24.11.2026 -
Yoann Cathline Utrecht Aktiv 131 / 132 40% 1 24.11.2026 -
Dennis Ayensa Standard Liege Aktiv 114 / 111 40% 2 21.11.2026 -
Zian Flemming Ipswich Town Aktiv 124 / 132 40% 1 20.11.2026 -
Leonardo Lopes KAA Gent Aktiv 128 / 113 40% 1 20.11.2026 -
Tristan Degreef Anderlecht Aktiv 114 / 125 40% 1 17.11.2026 -
Sylvester Jasper Standard Liege Aktiv 121 / 124 40% 2 11.11.2026 -
Julian Herrera Cortulua Aktiv 129 / 114 40% 3 07.11.2026 -
Yousef Salech Cardiff City Aktiv 125 / 128 40% 1 07.11.2026 -
Kyriani Sabbe Club Brugge Aktiv 119 / 129 40% 1 07.11.2026 -
Kyle Wootton Stockport County Aktiv 120 / 123 40% 1 03.11.2026 -
Sem Steijn Feyenoord Aktiv 151 / 150 40% 2 01.11.2026 -
Facundo Suárez Instituto Aktiv 126 / 120 40% 1 01.11.2026 -
Yaimar Medina Racing Genk Aktiv 130 / 122 40% 1 01.11.2026 -
Abdelkahar Kadri KAA Gent Aktiv 135 / 129 40% 1 31.10.2026 -
Morgan Guilavogui Real Salt Lake Aktiv 114 / 136 40% 3 27.10.2026 -
Aurélien Scheidler Charleroi Aktiv 126 / 116 40% 4 27.10.2026 -
Jan Virgili Club Brugge Aktiv 123 / 134 40% 1 25.10.2026 -
Ilyes Najim Waasland-Beveren Aktiv 112 / 115 40% 1 25.10.2026 -
Taiga Hata Sint-Truiden Aktiv 111 / 126 40% 1 19.10.2026 -
Antoine Colassin Charleroi Aktiv 115 / 123 40% 2 13.10.2026 -
Nayel Mehssatou KV Kortrijk Aktiv 104 / 119 40% 1 13.10.2026 -
Alexey Miranchuk Atlanta United FC Aktiv 135 / 143 40% 1 10.10.2026 -
Tommy St. Jago KV Mechelen Aktiv 129 / 123 40% 1 06.10.2026 -
Maksim Kireev KV Mechelen Aktiv 121 / 128 40% 1 06.10.2026 -
Alexis Cuello San Lorenzo Aktiv 133 / 132 40% 1 01.10.2026 -
Alejandro Piedrahita Deportivo Pereira Aktiv 123 / 116 40% 1 30.09.2026 -
Nicolás Ibáñez Cruz Azul Aktiv 142 / 133 40% 1 30.09.2026 -
Tadeo Allende Inter Miami CF Aktiv 121 / 126 40% 1 29.09.2026 -
Jesus Ferreira Seattle Sounders Aktiv 145 / 139 40% 1 23.09.2026 -
Ramiro Ruiz Rodríguez Atlético Tucumán Aktiv 111 / 121 40% 1 20.09.2026 -
Nico López Platense Aktiv 119 / 124 40% 1 20.09.2026 -
Juan Cruz de los Santos Nacional Aktiv 138 / 128 40% 1 19.09.2026 -
Victor Olatunji Real Salt Lake Aktiv 116 / 123 40% 1 16.09.2026 -
Enzo Copetti Rosario Central Aktiv 139 / 117 40% 1 16.09.2026 -
Wessam Abou Ali Columbus Crew Aktiv 134 / 122 40% 2 14.09.2026 -
João Klauss LA Galaxy Aktiv 125 / 130 40% 1 13.09.2026 -
Cheikh Sabaly Vancouver Whitecaps Aktiv 126 / 123 40% 1 12.09.2026 -
Benito Raman KV Mechelen Aktiv 121 / 118 40% 1 10.09.2026 -
Jorge Obregón Deportivo Pasto Aktiv 115 / 122 40% 1 07.09.2026 -
Germán Berterame Inter Miami CF Aktiv 135 / 134 40% 1 03.09.2026 -
Juninho Pumas UNAM Aktiv 119 / 117 40% 1 02.09.2026 -
Melih Junuzov Utrecht Aktiv 93 / 104 58% 1 24.08.2026 -
Martín Ojeda Orlando City Aktiv 134 / 141 40% 1 24.08.2026 -
Björn Menzo Utrecht Aktiv 105 / 111 58% 1 10.08.2026 -